createdAt,value
2019-05-09T00:00:10.639Z,10.13
2019-05-09T00:01:45.082Z,10.20
2019-05-09T00:03:20.044Z,10.25
2019-05-09T00:04:54.403Z,9.68
2019-05-09T00:06:28.776Z,10.93
2019-05-09T00:08:03.582Z,9.60
2019-05-09T00:09:38.835Z,9.75
2019-05-09T00:11:14.729Z,10.48
2019-05-09T00:12:49.417Z,10.43
2019-05-09T00:14:23.918Z,9.95
2019-05-09T00:15:58.837Z,9.85
2019-05-09T00:17:33.745Z,10.90
2019-05-09T00:19:08.261Z,9.75
2019-05-09T00:20:50.139Z,10.45
2019-05-09T00:22:24.693Z,9.38
2019-05-09T00:23:59.045Z,9.90
2019-05-09T00:25:33.967Z,9.25
2019-05-09T00:27:08.401Z,9.85
2019-05-09T00:28:44.648Z,10.65
2019-05-09T00:30:20.556Z,11.15
2019-05-09T00:31:56.452Z,9.68
2019-05-09T00:33:34.403Z,9.88
2019-05-09T00:35:14.143Z,10.20
2019-05-09T00:36:48.608Z,10.65
2019-05-09T00:38:24.537Z,10.50
2019-05-09T00:39:58.866Z,10.43
2019-05-09T00:41:33.685Z,10.38
2019-05-09T00:43:08.022Z,10.23
2019-05-09T00:44:49.583Z,10.32
2019-05-09T00:46:25.476Z,8.88
2019-05-09T00:48:00.145Z,9.43
2019-05-09T00:49:34.464Z,9.48
2019-05-09T00:51:10.389Z,10.28
2019-05-09T00:52:44.704Z,9.75
2019-05-09T00:54:19.841Z,9.18
2019-05-09T00:55:54.126Z,9.63
2019-05-09T00:57:34.516Z,9.83
2019-05-09T00:59:08.786Z,8.90
2019-05-09T01:00:44.028Z,10.18
2019-05-09T01:02:18.562Z,9.95
2019-05-09T01:03:53.618Z,10.03
2019-05-09T01:05:28.124Z,10.23
2019-05-09T01:07:03.453Z,9.85
2019-05-09T01:08:38.104Z,10.75
2019-05-09T01:10:13.381Z,8.63
2019-05-09T01:11:47.938Z,10.45
2019-05-09T01:13:23.199Z,10.15
2019-05-09T01:14:57.489Z,9.80
2019-05-09T01:16:33.551Z,9.23
2019-05-09T01:18:07.717Z,9.73
2019-05-09T01:19:43.241Z,10.40
2019-05-09T01:21:17.785Z,9.98
2019-05-09T01:22:54.053Z,10.05
2019-05-09T01:24:30.092Z,10.35
2019-05-09T01:26:04.703Z,10.13
2019-05-09T01:27:38.968Z,10.48
2019-05-09T01:29:13.707Z,8.87
2019-05-09T01:30:48.281Z,9.98
2019-05-09T01:32:34.280Z,10.98
2019-05-09T01:34:16.535Z,9.83
2019-05-09T01:35:50.795Z,9.68
2019-05-09T01:37:25.113Z,9.60
2019-05-09T01:38:59.676Z,10.48
2019-05-09T01:40:34.067Z,9.85
2019-05-09T01:42:07.740Z,11.13
2019-05-09T01:43:41.388Z,9.97
2019-05-09T01:45:16.055Z,10.13
2019-05-09T01:46:50.347Z,9.85
2019-05-09T01:48:24.613Z,9.68
2019-05-09T01:50:00.215Z,10.45
2019-05-09T01:51:34.834Z,9.65
2019-05-09T01:53:09.532Z,10.65
2019-05-09T01:54:45.668Z,10.30
2019-05-09T01:56:19.894Z,10.38
2019-05-09T01:57:54.537Z,10.13
2019-05-09T01:59:28.836Z,11.78
2019-05-09T02:01:04.774Z,10.75
2019-05-09T02:02:39.012Z,10.58
2019-05-09T02:04:13.873Z,11.03
2019-05-09T02:05:48.022Z,10.48
2019-05-09T02:07:23.737Z,11.93
2019-05-09T02:08:58.126Z,17.87
2019-05-09T02:10:34.604Z,18.42
2019-05-09T02:12:07.792Z,15.58
2019-05-09T02:13:41.476Z,12.97
2019-05-09T02:15:16.744Z,11.17
2019-05-09T02:16:53.704Z,9.63
2019-05-09T02:18:30.016Z,11.38
2019-05-09T02:20:05.013Z,10.13
2019-05-09T02:21:38.648Z,10.03
2019-05-09T02:23:13.994Z,9.80
2019-05-09T02:24:48.848Z,10.08
2019-05-09T02:26:24.070Z,11.23
2019-05-09T02:27:57.939Z,10.53
2019-05-09T02:29:33.791Z,10.40
2019-05-09T02:31:07.869Z,9.80
2019-05-09T02:32:44.735Z,9.90
2019-05-09T02:34:17.477Z,10.15
2019-05-09T02:35:56.982Z,9.87
2019-05-09T02:37:28.791Z,9.43
2019-05-09T02:39:02.735Z,9.73
2019-05-09T02:40:39.160Z,9.70
2019-05-09T02:42:14.212Z,8.93
2019-05-09T02:43:49.566Z,10.40
2019-05-09T02:45:28.283Z,10.43
2019-05-09T02:47:02.841Z,11.05
2019-05-09T02:48:38.659Z,10.45
2019-05-09T02:50:13.100Z,9.60
2019-05-09T02:51:48.739Z,10.67
2019-05-09T02:53:22.087Z,11.07
2019-05-09T02:54:58.322Z,11.03
2019-05-09T02:56:32.000Z,10.30
2019-05-09T02:58:08.333Z,10.63
2019-05-09T02:59:43.620Z,11.50
2019-05-09T03:01:21.773Z,11.00
2019-05-09T03:02:59.559Z,10.90
2019-05-09T03:04:33.594Z,10.53
2019-05-09T03:06:09.178Z,11.30
2019-05-09T03:07:51.683Z,10.03
2019-05-09T03:09:28.427Z,10.40
2019-05-09T03:11:01.340Z,10.93
2019-05-09T03:12:39.598Z,11.03
2019-05-09T03:14:11.237Z,12.10
2019-05-09T03:15:49.343Z,12.23
2019-05-09T03:17:22.137Z,11.80
2019-05-09T03:18:58.431Z,12.35
2019-05-09T03:20:40.154Z,12.98
2019-05-09T03:22:18.571Z,12.23
2019-05-09T03:23:51.335Z,11.73
2019-05-09T03:25:24.980Z,14.17
2019-05-09T03:27:00.582Z,12.87
2019-05-09T03:28:41.571Z,12.97
2019-05-09T03:30:23.411Z,12.80
2019-05-09T03:32:00.085Z,15.03
2019-05-09T03:33:35.706Z,17.53
2019-05-09T03:35:08.491Z,18.50
2019-05-09T03:36:42.376Z,17.77
2019-05-09T03:38:17.955Z,18.05
2019-05-09T03:39:51.821Z,16.43
2019-05-09T03:41:27.530Z,15.80
2019-05-09T03:43:00.756Z,14.20
2019-05-09T03:44:34.496Z,13.77
2019-05-09T03:46:13.398Z,13.53
2019-05-09T03:47:49.259Z,12.35
2019-05-09T03:49:24.607Z,12.53
2019-05-09T03:50:58.244Z,12.20
2019-05-09T03:52:32.684Z,12.63
2019-05-09T03:54:08.062Z,12.05
2019-05-09T03:55:42.530Z,12.55
2019-05-09T03:57:24.129Z,13.00
2019-05-09T03:58:58.748Z,13.72
2019-05-09T04:00:32.436Z,14.63
2019-05-09T04:02:09.831Z,14.35
2019-05-09T04:03:42.637Z,12.95
2019-05-09T04:05:18.127Z,12.70
2019-05-09T04:06:51.866Z,11.90
2019-05-09T04:08:28.105Z,11.10
2019-05-09T04:10:01.471Z,10.83
2019-05-09T04:11:38.210Z,9.48
2019-05-09T04:13:12.712Z,10.35
2019-05-09T04:14:47.944Z,10.70
2019-05-09T04:16:22.300Z,9.28
2019-05-09T04:17:57.899Z,9.00
2019-05-09T04:19:32.228Z,10.28
2019-05-09T04:21:08.453Z,9.53
2019-05-09T04:22:42.738Z,10.80
2019-05-09T04:24:17.801Z,10.50
2019-05-09T04:26:02.538Z,10.45
2019-05-09T04:27:37.443Z,10.08
2019-05-09T04:29:11.812Z,10.50
2019-05-09T04:30:47.745Z,11.70
2019-05-09T04:32:22.030Z,11.03
2019-05-09T04:33:57.388Z,11.53
2019-05-09T04:35:31.824Z,12.25
2019-05-09T04:37:07.869Z,11.50
2019-05-09T04:38:41.921Z,12.18
2019-05-09T04:40:17.798Z,12.10
2019-05-09T04:41:55.149Z,11.97
2019-05-09T04:43:35.487Z,12.20
2019-05-09T04:45:11.772Z,12.53
2019-05-09T04:46:47.923Z,13.00
2019-05-09T04:48:31.232Z,12.00
2019-05-09T04:50:07.557Z,11.60
2019-05-09T04:51:41.957Z,11.35
2019-05-09T04:53:18.163Z,11.18
2019-05-09T04:54:52.113Z,10.45
2019-05-09T04:56:31.437Z,11.88
2019-05-09T04:58:05.606Z,12.93
2019-05-09T04:59:39.904Z,13.30
2019-05-09T05:01:25.028Z,14.47
2019-05-09T05:02:59.684Z,15.38
2019-05-09T05:04:33.893Z,14.98
2019-05-09T05:06:08.122Z,15.55
2019-05-09T05:07:42.372Z,15.43
2019-05-09T05:09:21.084Z,16.17
2019-05-09T05:10:52.984Z,14.87
2019-05-09T05:12:27.771Z,12.53
2019-05-09T05:14:02.305Z,11.55
2019-05-09T05:15:37.788Z,11.97
2019-05-09T05:17:12.100Z,10.95
2019-05-09T05:18:47.808Z,10.03
2019-05-09T05:20:23.760Z,10.93
2019-05-09T05:21:59.909Z,10.65
2019-05-09T05:23:41.218Z,10.68
2019-05-09T05:25:17.725Z,11.83
2019-05-09T05:26:51.427Z,10.65
2019-05-09T05:28:27.853Z,11.28
2019-05-09T05:30:02.185Z,11.33
2019-05-09T05:31:38.651Z,10.08
2019-05-09T05:33:13.988Z,10.23
2019-05-09T05:35:02.565Z,10.32
2019-05-09T05:36:38.344Z,9.95
2019-05-09T05:38:12.718Z,10.10
2019-05-09T05:39:47.754Z,10.05
2019-05-09T05:41:22.573Z,10.28
2019-05-09T05:42:58.534Z,10.15
2019-05-09T05:44:32.848Z,8.40
2019-05-09T05:46:18.312Z,8.45
2019-05-09T05:47:54.762Z,8.48
2019-05-09T05:49:28.990Z,10.03
2019-05-09T05:51:03.213Z,10.68
2019-05-09T05:52:37.621Z,12.13
2019-05-09T05:54:12.207Z,12.90
2019-05-09T05:55:50.493Z,11.45
2019-05-09T05:57:22.314Z,11.50
2019-05-09T05:58:58.076Z,10.58
2019-05-09T06:00:32.625Z,11.90
2019-05-09T06:02:08.584Z,12.93
2019-05-09T06:03:42.775Z,14.93
2019-05-09T06:05:18.632Z,13.18
2019-05-09T06:06:53.251Z,12.30
2019-05-09T06:08:27.685Z,10.60
2019-05-09T06:10:02.164Z,10.65
2019-05-09T06:11:38.453Z,12.00
2019-05-09T06:13:12.642Z,13.43
2019-05-09T06:14:48.089Z,11.73
2019-05-09T06:16:22.500Z,11.33
2019-05-09T06:17:57.963Z,10.98
2019-05-09T06:19:32.752Z,10.23
2019-05-09T06:21:08.840Z,10.48
2019-05-09T06:22:42.905Z,10.20
2019-05-09T06:24:17.692Z,10.20
2019-05-09T06:25:52.459Z,10.58
2019-05-09T06:27:27.512Z,9.43
2019-05-09T06:29:02.223Z,10.50
2019-05-09T06:30:40.889Z,9.43
2019-05-09T06:32:12.675Z,9.33
2019-05-09T06:33:53.192Z,9.53
2019-05-09T06:35:25.036Z,8.90
2019-05-09T06:37:02.970Z,9.23
2019-05-09T06:38:37.564Z,8.90
2019-05-09T06:40:14.378Z,8.10
2019-05-09T06:41:48.682Z,7.75
2019-05-09T06:43:24.556Z,7.67
2019-05-09T06:45:00.930Z,7.65
2019-05-09T06:46:42.540Z,7.42
2019-05-09T06:48:18.072Z,7.15
2019-05-09T06:49:57.445Z,7.70
2019-05-09T06:51:32.155Z,7.35
2019-05-09T06:53:08.033Z,6.58
2019-05-09T06:54:42.497Z,6.67
2019-05-09T06:56:17.810Z,6.90
2019-05-09T06:57:52.786Z,6.45
2019-05-09T06:59:28.345Z,6.20
2019-05-09T07:01:08.473Z,6.15
2019-05-09T07:02:44.337Z,6.65
2019-05-09T07:04:29.891Z,6.65
2019-05-09T07:06:21.858Z,7.20
2019-05-09T07:08:00.420Z,6.95
2019-05-09T07:09:39.656Z,6.50
2019-05-09T07:11:13.947Z,7.25
2019-05-09T07:12:48.714Z,8.08
2019-05-09T07:14:37.993Z,6.62
2019-05-09T07:16:09.495Z,7.10
2019-05-09T07:17:44.053Z,6.12
2019-05-09T07:19:18.306Z,6.40
2019-05-09T07:20:52.594Z,6.03
2019-05-09T07:22:28.800Z,6.00
2019-05-09T07:24:03.061Z,6.70
2019-05-09T07:25:44.940Z,7.35
2019-05-09T07:27:19.149Z,6.00
2019-05-09T07:28:53.818Z,6.15
2019-05-09T07:30:32.849Z,5.55
2019-05-09T07:32:14.815Z,5.75
2019-05-09T07:33:50.672Z,6.00
2019-05-09T07:35:27.665Z,6.15
2019-05-09T07:37:01.149Z,6.72
2019-05-09T07:38:35.469Z,5.33
2019-05-09T07:40:09.669Z,5.00
2019-05-09T07:41:43.977Z,5.50
2019-05-09T07:43:18.200Z,6.60
2019-05-09T07:44:54.019Z,5.37
2019-05-09T07:46:29.799Z,4.12
2019-05-09T07:48:04.382Z,5.08
2019-05-09T07:49:38.639Z,5.47
2019-05-09T07:51:13.004Z,4.97
2019-05-09T07:52:47.829Z,4.30
2019-05-09T07:54:25.649Z,4.40
2019-05-09T07:55:58.516Z,4.42
2019-05-09T07:57:32.740Z,3.90
2019-05-09T07:59:07.691Z,4.00
2019-05-09T08:00:42.241Z,3.67
2019-05-09T08:02:17.667Z,4.03
2019-05-09T08:03:52.272Z,3.80
2019-05-09T08:05:29.049Z,4.53
2019-05-09T08:07:05.023Z,3.90
2019-05-09T08:08:39.233Z,4.10
2019-05-09T08:10:13.543Z,3.52
2019-05-09T08:11:48.327Z,4.15
2019-05-09T08:13:23.411Z,3.47
2019-05-09T08:15:10.258Z,5.00
2019-05-09T08:16:33.551Z,4.80
2019-05-09T08:18:08.694Z,4.50
2019-05-09T08:19:43.624Z,3.80
2019-05-09T08:21:18.165Z,4.45
2019-05-09T08:22:58.657Z,4.10
2019-05-09T08:24:28.672Z,4.00
2019-05-09T08:26:04.601Z,3.40
2019-05-09T08:27:38.883Z,3.22
2019-05-09T08:29:13.093Z,3.60
2019-05-09T08:30:48.399Z,3.42
2019-05-09T08:32:23.219Z,3.02
2019-05-09T08:33:59.321Z,2.83
2019-05-09T08:35:33.287Z,2.80
2019-05-09T08:37:08.300Z,2.30
2019-05-09T08:38:42.845Z,2.47
2019-05-09T08:40:18.328Z,2.72
2019-05-09T08:41:52.911Z,2.65
2019-05-09T08:43:28.333Z,2.22
2019-05-09T08:45:03.237Z,2.60
2019-05-09T08:46:37.837Z,2.65
2019-05-09T08:48:12.220Z,2.58
2019-05-09T08:49:50.781Z,2.30
2019-05-09T08:51:47.393Z,2.83
2019-05-09T08:53:11.687Z,2.72
2019-05-09T08:54:48.568Z,2.92
2019-05-09T08:56:23.062Z,2.37
2019-05-09T08:57:58.629Z,2.67
2019-05-09T08:59:33.339Z,2.30
2019-05-09T09:01:10.117Z,2.80
2019-05-09T09:02:43.488Z,2.75
2019-05-09T09:04:18.993Z,2.87
2019-05-09T09:05:53.669Z,2.45
2019-05-09T09:07:29.665Z,2.45
2019-05-09T09:09:05.273Z,2.87
2019-05-09T09:10:39.875Z,2.83
2019-05-09T09:12:25.977Z,2.72
2019-05-09T09:13:50.016Z,2.65
2019-05-09T09:15:46.452Z,2.62
2019-05-09T09:17:00.292Z,2.92
2019-05-09T09:18:34.549Z,3.08
2019-05-09T09:20:08.853Z,3.08
2019-05-09T09:21:46.666Z,2.27
2019-05-09T09:23:20.489Z,2.72
2019-05-09T09:24:58.455Z,2.65
2019-05-09T09:26:32.233Z,2.60
2019-05-09T09:28:08.846Z,2.45
2019-05-09T09:29:42.889Z,2.70
2019-05-09T09:31:18.025Z,2.55
2019-05-09T09:32:53.624Z,2.98
2019-05-09T09:34:30.046Z,2.65
2019-05-09T09:36:09.247Z,2.60
2019-05-09T09:37:48.593Z,3.40
2019-05-09T09:39:19.301Z,3.00
2019-05-09T09:40:53.512Z,2.70
2019-05-09T09:42:28.406Z,3.05
2019-05-09T09:44:04.465Z,2.42
2019-05-09T09:45:38.686Z,2.65
2019-05-09T09:47:12.901Z,2.77
2019-05-09T09:48:48.173Z,2.65
2019-05-09T09:50:22.522Z,2.22
2019-05-09T09:51:58.154Z,2.60
2019-05-09T09:53:32.590Z,2.60
2019-05-09T09:55:09.010Z,2.75
2019-05-09T09:56:47.720Z,2.75
2019-05-09T09:58:21.014Z,2.62
2019-05-09T09:59:58.401Z,2.77
2019-05-09T10:01:37.966Z,2.87
2019-05-09T10:03:11.854Z,2.83
2019-05-09T10:04:46.062Z,2.87
2019-05-09T10:06:20.351Z,2.80
2019-05-09T10:07:54.888Z,2.92
2019-05-09T10:09:29.100Z,2.70
2019-05-09T10:11:03.385Z,2.92
2019-05-09T10:12:43.558Z,3.00
2019-05-09T10:14:15.405Z,3.25
2019-05-09T10:16:25.208Z,2.22
2019-05-09T10:17:47.755Z,2.45
2019-05-09T10:19:33.361Z,2.47
2019-05-09T10:21:09.278Z,2.60
2019-05-09T10:22:46.833Z,2.22
2019-05-09T10:24:20.266Z,2.42
2019-05-09T10:25:54.800Z,2.42
2019-05-09T10:27:29.194Z,2.83
2019-05-09T10:29:03.462Z,2.35
2019-05-09T10:30:38.388Z,2.95
2019-05-09T10:32:14.517Z,2.42
2019-05-09T10:33:48.736Z,2.42
2019-05-09T10:35:23.803Z,2.40
2019-05-09T10:36:58.376Z,2.83
2019-05-09T10:38:33.073Z,2.85
2019-05-09T10:40:07.429Z,2.95
2019-05-09T10:41:41.713Z,2.77
2019-05-09T10:43:35.551Z,2.37
2019-05-09T10:45:07.530Z,2.55
2019-05-09T10:46:56.772Z,3.17
2019-05-09T10:48:28.155Z,2.65
2019-05-09T10:50:01.199Z,2.67
2019-05-09T10:51:35.728Z,2.30
2019-05-09T10:53:09.937Z,2.80
2019-05-09T10:54:44.192Z,2.47
2019-05-09T10:56:19.045Z,2.55
2019-05-09T10:57:53.901Z,2.52
2019-05-09T10:59:28.116Z,2.45
2019-05-09T11:01:02.451Z,2.40
2019-05-09T11:02:36.675Z,2.67
2019-05-09T11:04:11.233Z,2.77
2019-05-09T11:05:45.447Z,2.37
2019-05-09T11:07:19.709Z,2.47
2019-05-09T11:08:53.911Z,2.70
2019-05-09T11:10:31.901Z,2.70
2019-05-09T11:12:04.652Z,3.05
2019-05-09T11:13:40.367Z,2.90
2019-05-09T11:15:14.660Z,2.90
2019-05-09T11:16:54.233Z,2.83
2019-05-09T11:18:24.914Z,2.85
2019-05-09T11:19:59.169Z,2.80
2019-05-09T11:21:33.460Z,2.60
2019-05-09T11:23:08.264Z,2.65
2019-05-09T11:24:46.651Z,3.10
2019-05-09T11:26:18.633Z,3.08
2019-05-09T11:28:06.667Z,2.80
2019-05-09T11:29:29.017Z,3.20
2019-05-09T11:31:03.304Z,2.95
2019-05-09T11:32:38.607Z,2.95
2019-05-09T11:34:12.888Z,3.00
2019-05-09T11:35:48.047Z,2.75
2019-05-09T11:37:22.502Z,2.85
2019-05-09T11:39:00.167Z,2.60
2019-05-09T11:40:32.651Z,3.00
2019-05-09T11:42:07.219Z,2.62
2019-05-09T11:43:41.477Z,2.70
2019-05-09T11:45:17.716Z,2.80
2019-05-09T11:46:51.638Z,2.70
2019-05-09T11:48:28.408Z,2.65
2019-05-09T11:50:02.363Z,2.75
2019-05-09T11:51:38.106Z,2.70
2019-05-09T11:53:12.335Z,2.62
2019-05-09T11:54:48.193Z,2.67
2019-05-09T11:56:22.558Z,2.77
2019-05-09T11:57:59.067Z,3.02
2019-05-09T11:59:34.410Z,2.55
2019-05-09T12:01:08.945Z,2.50
2019-05-09T12:02:43.205Z,2.60
2019-05-09T12:04:18.763Z,2.92
2019-05-09T12:05:53.228Z,2.85
2019-05-09T12:07:28.815Z,2.35
2019-05-09T12:09:05.309Z,2.17
2019-05-09T12:10:39.507Z,3.15
2019-05-09T12:12:13.786Z,2.58
2019-05-09T12:13:48.905Z,2.70
2019-05-09T12:15:24.388Z,2.85
2019-05-09T12:16:58.644Z,2.80
2019-05-09T12:18:32.853Z,2.85
2019-05-09T12:20:12.597Z,2.80
2019-05-09T12:21:47.762Z,2.90
2019-05-09T12:23:20.129Z,2.87
2019-05-09T12:24:54.541Z,2.30
2019-05-09T12:26:29.483Z,2.55
2019-05-09T12:28:03.751Z,2.98
2019-05-09T12:29:38.677Z,2.12
2019-05-09T12:31:13.383Z,2.45
2019-05-09T12:32:48.004Z,2.75
2019-05-09T12:34:22.206Z,2.35
2019-05-09T12:35:59.307Z,2.85
2019-05-09T12:37:33.181Z,3.10
2019-05-09T12:39:09.677Z,2.55
2019-05-09T12:40:43.885Z,3.02
2019-05-09T12:42:18.777Z,2.80
2019-05-09T12:43:53.292Z,3.00
2019-05-09T12:45:27.802Z,2.77
2019-05-09T12:47:04.897Z,2.60
2019-05-09T12:48:39.144Z,3.10
2019-05-09T12:50:13.622Z,2.37
2019-05-09T12:51:48.045Z,3.45
2019-05-09T12:53:22.272Z,3.33
2019-05-09T12:54:58.257Z,3.27
2019-05-09T12:56:32.372Z,2.87
2019-05-09T12:58:09.785Z,2.83
2019-05-09T12:59:48.976Z,2.95
2019-05-09T13:01:20.071Z,2.52
2019-05-09T13:02:54.339Z,3.00
2019-05-09T13:04:28.854Z,3.25
2019-05-09T13:06:03.165Z,2.70
2019-05-09T13:07:40.009Z,3.40
2019-05-09T13:09:13.469Z,3.25
2019-05-09T13:10:48.835Z,3.20
2019-05-09T13:12:23.344Z,3.77
2019-05-09T13:13:58.128Z,3.52
2019-05-09T13:15:34.021Z,3.70
2019-05-09T13:17:17.828Z,2.85
2019-05-09T13:19:05.376Z,2.83
2019-05-09T13:20:39.626Z,3.30
2019-05-09T13:22:13.858Z,3.37
2019-05-09T13:23:52.225Z,2.98
2019-05-09T13:25:24.372Z,3.02
2019-05-09T13:26:58.655Z,2.80
2019-05-09T13:28:32.838Z,2.95
2019-05-09T13:30:08.555Z,2.47
2019-05-09T13:31:42.753Z,2.72
2019-05-09T13:33:18.884Z,3.65
2019-05-09T13:34:52.910Z,3.92
2019-05-09T13:36:28.356Z,3.17
2019-05-09T13:38:02.958Z,5.40
2019-05-09T13:39:39.459Z,3.42
2019-05-09T13:41:13.000Z,3.60
2019-05-09T13:42:49.082Z,2.75
2019-05-09T13:44:23.411Z,3.20
2019-05-09T13:45:58.801Z,3.47
2019-05-09T13:47:33.030Z,4.53
2019-05-09T13:49:12.570Z,4.03
2019-05-09T13:50:43.502Z,3.40
2019-05-09T13:52:18.053Z,4.37
2019-05-09T13:53:53.765Z,3.33
2019-05-09T13:55:28.679Z,3.35
2019-05-09T13:57:02.889Z,3.02
2019-05-09T13:58:38.428Z,2.77
2019-05-09T14:00:12.908Z,3.22
2019-05-09T14:01:48.005Z,2.92
2019-05-09T14:03:22.294Z,3.12
2019-05-09T14:04:58.397Z,3.47
2019-05-09T14:06:32.518Z,4.90
2019-05-09T14:08:09.126Z,3.40
2019-05-09T14:09:42.922Z,4.35
2019-05-09T14:11:19.356Z,3.10
2019-05-09T14:13:05.635Z,3.67
2019-05-09T14:14:29.436Z,4.00
2019-05-09T14:16:18.889Z,3.25
2019-05-09T14:17:49.168Z,3.08
2019-05-09T14:19:31.736Z,3.87
2019-05-09T14:20:51.782Z,3.50
2019-05-09T14:22:26.068Z,3.30
2019-05-09T14:24:10.802Z,3.75
2019-05-09T14:25:38.138Z,3.77
2019-05-09T14:27:12.315Z,2.98
2019-05-09T14:28:48.870Z,3.22
2019-05-09T14:30:22.448Z,3.30
2019-05-09T14:31:56.733Z,3.70
2019-05-09T14:33:31.096Z,3.10
2019-05-09T14:35:08.512Z,2.98
2019-05-09T14:36:45.696Z,3.50
2019-05-09T14:38:19.246Z,3.90
2019-05-09T14:39:58.701Z,3.60
2019-05-09T14:41:29.938Z,4.15
2019-05-09T14:43:04.208Z,3.87
2019-05-09T14:44:38.436Z,4.37
2019-05-09T14:46:12.832Z,4.37
2019-05-09T14:47:47.116Z,3.70
2019-05-09T14:49:21.460Z,4.45
2019-05-09T14:50:58.175Z,4.37
2019-05-09T14:52:31.745Z,4.35
2019-05-09T14:54:08.367Z,4.20
2019-05-09T14:55:43.298Z,4.60
2019-05-09T14:57:17.864Z,4.78
2019-05-09T14:58:52.357Z,4.05
2019-05-09T15:00:26.772Z,4.50
2019-05-09T15:02:00.984Z,3.47
2019-05-09T15:03:35.263Z,3.52
2019-05-09T15:05:09.908Z,3.47
2019-05-09T15:06:44.125Z,3.87
2019-05-09T15:08:18.353Z,3.30
2019-05-09T15:09:56.809Z,3.52
2019-05-09T15:11:31.925Z,3.95
2019-05-09T15:13:07.798Z,3.95
2019-05-09T15:14:42.026Z,3.70
2019-05-09T15:16:18.481Z,3.35
2019-05-09T15:17:52.419Z,4.42
2019-05-09T15:19:28.741Z,8.25
2019-05-09T15:21:02.728Z,7.17
2019-05-09T15:22:38.666Z,5.20
2019-05-09T15:24:13.009Z,4.15
2019-05-09T15:25:48.045Z,4.50
2019-05-09T15:27:22.746Z,4.62
2019-05-09T15:28:57.780Z,5.28
2019-05-09T15:30:32.734Z,6.05
2019-05-09T15:32:12.077Z,5.60
2019-05-09T15:33:42.878Z,4.65
2019-05-09T15:35:18.276Z,5.10
2019-05-09T15:36:53.026Z,4.33
2019-05-09T15:38:29.015Z,8.35
2019-05-09T15:40:03.424Z,4.83
2019-05-09T15:41:38.446Z,4.83
2019-05-09T15:43:13.211Z,4.60
2019-05-09T15:44:49.356Z,6.40
2019-05-09T15:46:27.762Z,4.25
2019-05-09T15:48:01.122Z,4.72
2019-05-09T15:49:38.364Z,14.85
2019-05-09T15:51:11.828Z,10.03
2019-05-09T15:53:08.410Z,13.35
2019-05-09T15:54:43.531Z,12.25
2019-05-09T15:56:18.737Z,9.45
2019-05-09T15:57:53.236Z,11.43
2019-05-09T15:59:28.226Z,15.90
2019-05-09T16:01:02.809Z,21.25
2019-05-09T16:02:39.082Z,17.12
2019-05-09T16:04:13.577Z,13.03
2019-05-09T16:05:48.062Z,12.65
2019-05-09T16:07:22.726Z,13.05
2019-05-09T16:08:58.575Z,8.80
2019-05-09T16:10:32.960Z,6.95
2019-05-09T16:12:07.806Z,7.03
2019-05-09T16:13:42.416Z,7.33
2019-05-09T16:15:18.393Z,10.53
2019-05-09T16:16:52.929Z,19.02
2019-05-09T16:18:28.804Z,18.55
2019-05-09T16:20:08.420Z,15.28
2019-05-09T16:21:42.696Z,12.03
2019-05-09T16:23:18.437Z,13.75
2019-05-09T16:24:52.889Z,14.43
2019-05-09T16:26:29.129Z,13.70
2019-05-09T16:28:03.495Z,16.32
2019-05-09T16:29:38.297Z,16.35
2019-05-09T16:31:13.458Z,12.95
2019-05-09T16:32:49.640Z,14.00
2019-05-09T16:34:25.332Z,13.15
2019-05-09T16:36:00.955Z,13.30
2019-05-09T16:37:52.533Z,13.15
2019-05-09T16:39:11.366Z,13.28
2019-05-09T16:40:47.918Z,14.65
2019-05-09T16:42:21.947Z,13.28
2019-05-09T16:43:58.280Z,17.30
2019-05-09T16:45:32.197Z,9.10
2019-05-09T16:47:08.325Z,14.47
2019-05-09T16:48:42.442Z,17.07
2019-05-09T16:50:17.946Z,12.75
2019-05-09T16:51:53.443Z,11.73
2019-05-09T16:53:28.005Z,13.05
2019-05-09T16:55:03.878Z,20.48
2019-05-09T16:56:38.356Z,14.50
2019-05-09T16:58:14.377Z,15.10
2019-05-09T16:59:49.745Z,17.92
2019-05-09T17:01:23.956Z,20.70
2019-05-09T17:02:58.191Z,17.45
2019-05-09T17:04:33.921Z,17.85
2019-05-09T17:06:08.293Z,18.60
2019-05-09T17:07:43.965Z,12.25
2019-05-09T17:09:18.224Z,12.40
2019-05-09T17:10:53.468Z,11.75
2019-05-09T17:12:27.888Z,11.93
2019-05-09T17:14:02.179Z,11.18
2019-05-09T17:15:38.952Z,11.18
2019-05-09T17:17:13.360Z,10.13
2019-05-09T17:18:48.633Z,10.95
2019-05-09T17:20:33.973Z,12.60
2019-05-09T17:22:09.853Z,12.40
2019-05-09T17:23:47.637Z,14.45
2019-05-09T17:25:21.788Z,14.45
2019-05-09T17:26:57.976Z,14.55
2019-05-09T17:28:32.352Z,14.87
2019-05-09T17:30:08.601Z,15.35
2019-05-09T17:31:43.013Z,13.18
2019-05-09T17:33:17.416Z,14.93
2019-05-09T17:34:51.652Z,18.32
2019-05-09T17:36:28.413Z,14.80
2019-05-09T17:38:02.178Z,12.37
2019-05-09T17:39:38.444Z,13.08
2019-05-09T17:41:12.301Z,13.05
2019-05-09T17:42:47.134Z,13.78
2019-05-09T17:44:21.432Z,12.10
2019-05-09T17:45:58.172Z,11.45
2019-05-09T17:47:31.565Z,10.85
2019-05-09T17:49:08.199Z,11.08
2019-05-09T17:50:42.070Z,10.82
2019-05-09T17:52:18.265Z,11.20
2019-05-09T17:53:52.403Z,11.63
2019-05-09T17:55:26.829Z,11.22
2019-05-09T17:57:01.065Z,11.35
2019-05-09T17:58:37.847Z,11.78
2019-05-09T18:00:13.044Z,12.47
2019-05-09T18:01:48.235Z,10.08
2019-05-09T18:03:22.838Z,11.10
2019-05-09T18:04:58.252Z,11.80
2019-05-09T18:06:32.690Z,13.05
2019-05-09T18:08:08.792Z,14.68
2019-05-09T18:09:43.086Z,14.85
2019-05-09T18:11:17.550Z,17.35
2019-05-09T18:12:52.061Z,16.00
2019-05-09T18:14:27.664Z,17.98
2019-05-09T18:16:02.783Z,17.37
2019-05-09T18:17:38.283Z,35.80
2019-05-09T18:19:13.014Z,22.48
2019-05-09T18:20:49.038Z,19.80
2019-05-09T18:22:23.245Z,20.30
2019-05-09T18:23:58.679Z,17.17
2019-05-09T18:25:33.208Z,15.05
2019-05-09T18:27:10.163Z,17.15
2019-05-09T18:28:44.480Z,22.30
2019-05-09T18:30:19.346Z,24.15
2019-05-09T18:32:03.022Z,21.23
2019-05-09T18:33:41.731Z,19.98
2019-05-09T18:35:17.684Z,16.87
2019-05-09T18:36:51.980Z,17.23
2019-05-09T18:38:29.203Z,20.50
2019-05-09T18:40:04.507Z,19.42
2019-05-09T18:41:38.724Z,19.15
2019-05-09T18:43:12.996Z,23.52
2019-05-09T18:44:47.670Z,20.55
2019-05-09T18:46:22.129Z,20.23
2019-05-09T18:47:58.027Z,20.37
2019-05-09T18:49:32.571Z,20.72
2019-05-09T18:51:06.959Z,27.55
2019-05-09T18:52:59.913Z,60.20
2019-05-09T18:54:34.119Z,33.38
2019-05-09T18:56:08.531Z,22.73
2019-05-09T18:57:42.786Z,18.95
2019-05-09T18:59:18.870Z,20.62
2019-05-09T19:00:53.179Z,21.30
2019-05-09T19:02:31.326Z,25.50
2019-05-09T19:04:06.937Z,16.42
2019-05-09T19:05:47.032Z,14.45
2019-05-09T19:07:22.892Z,16.60
2019-05-09T19:08:57.413Z,18.45
2019-05-09T19:10:31.657Z,25.20
2019-05-09T19:12:06.257Z,22.22
2019-05-09T19:13:40.505Z,22.58
2019-05-09T19:15:32.876Z,24.98
2019-05-09T19:17:25.337Z,23.20
2019-05-09T19:19:04.258Z,19.42
2019-05-09T19:20:41.703Z,21.05
2019-05-09T19:22:22.332Z,20.65
2019-05-09T19:23:52.105Z,19.17
2019-05-09T19:25:26.368Z,18.70
2019-05-09T19:27:00.700Z,19.70
2019-05-09T19:28:35.023Z,28.17
2019-05-09T19:30:10.129Z,27.67
2019-05-09T19:31:44.488Z,24.15
2019-05-09T19:33:18.737Z,21.68
2019-05-09T19:34:52.946Z,19.80
2019-05-09T19:36:27.921Z,17.95
2019-05-09T19:38:02.201Z,18.57
2019-05-09T19:39:36.509Z,19.25
2019-05-09T19:41:10.798Z,23.75
2019-05-09T19:42:48.240Z,23.57
2019-05-09T19:44:22.461Z,22.73
2019-05-09T19:45:56.748Z,21.00
2019-05-09T19:47:31.134Z,19.62
2019-05-09T19:49:05.933Z,20.23
2019-05-09T19:50:40.343Z,18.52
2019-05-09T19:52:14.706Z,18.60
2019-05-09T19:53:48.944Z,17.02
2019-05-09T19:55:23.648Z,15.78
2019-05-09T19:56:57.945Z,15.93
2019-05-09T19:58:32.317Z,16.95
2019-05-09T20:00:08.833Z,17.25
2019-05-09T20:01:43.508Z,16.48
2019-05-09T20:03:19.192Z,16.95
2019-05-09T20:04:55.115Z,16.87
2019-05-09T20:06:29.338Z,18.30
2019-05-09T20:08:04.066Z,17.15
2019-05-09T20:09:42.898Z,17.62
2019-05-09T20:11:34.028Z,17.67
2019-05-09T20:13:10.358Z,18.87
2019-05-09T20:14:47.394Z,18.40
2019-05-09T20:16:21.697Z,18.65
2019-05-09T20:17:55.941Z,18.12
2019-05-09T20:19:30.462Z,18.98
2019-05-09T20:21:04.729Z,18.25
2019-05-09T20:22:51.950Z,19.30
2019-05-09T20:24:14.845Z,18.00
2019-05-09T20:25:49.345Z,19.42
2019-05-09T20:27:25.313Z,19.52
2019-05-09T20:28:59.584Z,20.65
2019-05-09T20:30:33.841Z,21.05
2019-05-09T20:32:08.538Z,20.48
2019-05-09T20:33:42.748Z,21.35
2019-05-09T20:35:17.043Z,18.82
2019-05-09T20:36:51.358Z,19.10
2019-05-09T20:38:27.098Z,19.90
2019-05-09T20:40:01.554Z,18.95
2019-05-09T20:41:38.959Z,19.70
2019-05-09T20:43:13.441Z,20.30
2019-05-09T20:44:48.093Z,20.45
2019-05-09T20:46:22.513Z,19.35
2019-05-09T20:47:57.054Z,20.77
2019-05-09T20:49:31.453Z,18.73
2019-05-09T20:51:05.973Z,18.82
2019-05-09T20:52:40.380Z,19.27